Manheim, West Virginia
Current Conditions -  °F | °C
As of 2:51 PM on Thursday 30 Oct 2014 (Local Time) from KEKN Reporting Station
Overcast Overcast  
Wind Chill:   Ceiling: 3200
Heat Index:   Visibility: 10mi
Dew Point:   Wind: 3mph
Humidity: 65%   Direction: 350°N
Pressure: 30.07"   Gusts: NA
Location:  39.2234°N, 79.6204°W
Report Text: KEKN 301851Z AUTO 35003KT 10SM OVC032 07/01 A3007 RMK AO2 SLP197 T00720011 TSNO
Loading
Personal Weather Stations






























Interactive Weather Map
Tropical Storm Tracking
New forecast layout! Learn more

10-Day Weather Forecast

Advertisements
Track Severe Weather on mobile